Time;durP1;ratioP1;P1;durP2;ratioP2;P2;SDS_P1;SDS_P2;PMS_P1;PMS_P2;Temp;Humidity;BMP_temperature;BMP_pressure;BME280_temperature;BME280_humidity;BME280_pressure;Samples;Min_cycle;Max_cycle;Signal;HPM_P1;HPM_P2
2021/04/12 00:00:08;;;;;;;6.20;2.83;;;2.20;93.60;;;;;;5136525;27;20043;-67
2021/04/12 00:03:02;;;;;;;7.20;3.47;;;2.30;93.50;;;;;;5136551;27;20359;-67
2021/04/12 00:05:34;;;;;;;10.90;4.00;;;2.30;93.50;;;;;;5136360;27;20110;-67
2021/04/12 00:08:36;;;;;;;11.35;3.60;;;2.30;93.50;;;;;;5136348;27;20035;-67
2021/04/12 00:11:17;;;;;;;12.25;3.70;;;2.30;93.40;;;;;;5136420;27;20118;-67
2021/04/12 00:14:10;;;;;;;7.75;3.10;;;2.20;93.40;;;;;;5134953;27;20113;-67
2021/04/12 00:16:42;;;;;;;5.73;3.13;;;2.10;93.40;;;;;;5136063;27;20039;-67
2021/04/12 00:19:42;;;;;;;7.43;3.13;;;2.10;93.50;;;;;;5136501;27;20088;-67
2021/04/12 00:22:19;;;;;;;9.55;2.90;;;2.10;93.60;;;;;;5135178;27;20398;-67
2021/04/12 00:25:09;;;;;;;4.47;2.85;;;2.10;93.50;;;;;;5135590;27;20494;-68
2021/04/12 00:27:45;;;;;;;7.38;3.15;;;2.10;93.50;;;;;;5136188;27;20050;-67
2021/04/12 00:30:14;;;;;;;5.55;2.45;;;2.10;93.50;;;;;;5136175;27;20043;-67
2021/04/12 00:33:02;;;;;;;4.45;2.38;;;2.10;93.40;;;;;;5135697;27;20121;-67
2021/04/12 00:35:40;;;;;;;6.13;3.20;;;2.00;93.40;;;;;;5135394;27;20078;-67
2021/04/12 00:38:23;;;;;;;7.43;3.33;;;2.00;93.40;;;;;;5135891;27;20040;-67
2021/04/12 00:41:16;;;;;;;6.07;3.60;;;1.90;93.50;;;;;;5135839;27;20047;-67
2021/04/12 00:44:06;;;;;;;7.50;3.35;;;1.90;93.50;;;;;;5135658;27;20051;-67
2021/04/12 00:46:50;;;;;;;6.43;2.95;;;1.80;93.60;;;;;;5135136;27;20050;-67
2021/04/12 00:49:30;;;;;;;6.10;3.20;;;1.80;93.60;;;;;;5135458;27;20397;-67
2021/04/12 00:52:28;;;;;;;5.07;3.05;;;1.80;93.70;;;;;;5135766;27;20039;-67
2021/04/12 00:55:25;;;;;;;6.72;2.90;;;1.80;93.70;;;;;;5134541;27;20406;-67
2021/04/12 00:58:23;;;;;;;7.03;2.75;;;1.70;93.90;;;;;;5135370;27;20042;-67
2021/04/12 01:01:08;;;;;;;8.32;3.10;;;1.80;93.90;;;;;;5135437;27;20380;-67
2021/04/12 01:04:11;;;;;;;5.75;2.58;;;1.70;93.90;;;;;;5135343;27;20062;-67
2021/04/12 01:06:53;;;;;;;6.00;2.35;;;1.80;93.90;;;;;;5134814;27;20038;-67
2021/04/12 01:09:52;;;;;;;6.97;3.17;;;1.80;93.90;;;;;;5135534;27;20060;-67
2021/04/12 01:12:45;;;;;;;7.75;2.78;;;1.70;93.90;;;;;;5134968;27;20042;-67
2021/04/12 01:15:25;;;;;;;6.90;2.50;;;1.70;93.80;;;;;;5134555;27;20114;-67
2021/04/12 01:18:16;;;;;;;6.15;2.72;;;1.80;93.90;;;;;;5134887;27;20475;-67
2021/04/12 01:21:14;;;;;;;4.97;2.63;;;1.80;93.80;;;;;;5134782;27;20035;-67
2021/04/12 01:24:01;;;;;;;9.07;3.17;;;1.80;94.00;;;;;;5134957;27;20092;-67
2021/04/12 01:27:15;;;;;;;4.30;2.53;;;1.80;93.90;;;;;;5134500;27;20142;-67
2021/04/12 01:30:18;;;;;;;4.50;2.50;;;1.80;93.90;;;;;;5133461;27;20508;-67
2021/04/12 01:33:08;;;;;;;8.35;2.78;;;1.80;94.00;;;;;;5133043;27;20035;-67
2021/04/12 01:35:58;;;;;;;6.38;3.15;;;1.80;93.90;;;;;;5134548;27;20394;-67
2021/04/12 01:38:37;;;;;;;9.13;2.63;;;1.90;93.80;;;;;;5134565;27;20060;-67
2021/04/12 01:41:22;;;;;;;3.78;2.60;;;1.90;93.80;;;;;;5135046;27;20039;-67
2021/04/12 01:44:04;;;;;;;5.28;2.72;;;1.90;93.70;;;;;;5134847;27;20114;-67
2021/04/12 01:47:00;;;;;;;5.47;2.45;;;1.80;93.70;;;;;;5134126;27;20047;-67
2021/04/12 01:50:06;;;;;;;7.82;3.05;;;1.80;93.70;;;;;;5134424;27;20110;-67
2021/04/12 01:52:59;;;;;;;4.15;2.35;;;1.70;93.90;;;;;;5134450;27;20120;-67
2021/04/12 01:55:24;;;;;;;5.38;2.80;;;1.60;94.00;;;;;;5134113;27;20035;-67
2021/04/12 01:58:15;;;;;;;8.73;3.15;;;1.60;94.00;;;;;;5134383;27;20041;-67
2021/04/12 02:01:10;;;;;;;5.30;2.40;;;1.60;94.10;;;;;;5134304;27;20526;-67
2021/04/12 02:03:52;;;;;;;9.98;2.88;;;1.60;94.10;;;;;;5133035;27;20509;-67
2021/04/12 02:06:27;;;;;;;5.88;2.63;;;1.70;94.00;;;;;;5134221;27;20035;-67
2021/04/12 02:09:30;;;;;;;5.60;2.90;;;1.60;94.00;;;;;;5134287;27;20035;-67
2021/04/12 02:12:23;;;;;;;7.80;2.85;;;1.60;94.10;;;;;;5134450;27;20039;-67
2021/04/12 02:14:55;;;;;;;6.15;2.90;;;1.60;94.10;;;;;;5133701;27;20043;-67
2021/04/12 02:17:54;;;;;;;5.68;2.97;;;1.50;94.20;;;;;;5132870;28;20064;-67
2021/04/12 02:20:55;;;;;;;9.80;2.72;;;1.50;94.20;;;;;;5134142;27;20036;-67
2021/04/12 02:23:54;;;;;;;12.32;3.05;;;1.50;94.30;;;;;;5134272;27;20084;-67
2021/04/12 02:26:52;;;;;;;8.05;2.78;;;1.50;94.30;;;;;;5133555;27;20042;-67
2021/04/12 02:29:30;;;;;;;6.35;2.67;;;1.50;94.20;;;;;;5134206;27;20399;-67
2021/04/12 02:32:24;;;;;;;5.50;2.50;;;1.40;94.30;;;;;;5134354;27;20164;-67
2021/04/12 02:35:15;;;;;;;5.30;2.35;;;1.40;94.30;;;;;;5133849;27;20081;-67
2021/04/12 02:38:02;;;;;;;7.97;2.70;;;1.40;94.30;;;;;;5134429;27;20467;-67
2021/04/12 02:41:02;;;;;;;5.90;2.20;;;1.40;94.40;;;;;;5134390;27;20043;-67
2021/04/12 02:43:56;;;;;;;9.35;3.75;;;1.40;94.30;;;;;;5132850;27;20058;-67
2021/04/12 02:46:41;;;;;;;;;;;1.50;94.30;;;;;;5138087;27;20035;-67
2021/04/12 02:49:19;;;;;;;4.82;2.20;;;1.40;94.40;;;;;;5138277;27;19915;-67
2021/04/12 02:51:53;;;;;;;4.65;2.67;;;1.40;94.20;;;;;;5137831;27;20036;-67
2021/04/12 02:54:34;;;;;;;4.68;2.45;;;1.40;94.10;;;;;;5138042;27;20039;-67
2021/04/12 02:57:09;;;;;;;6.95;2.72;;;1.30;94.30;;;;;;5137606;27;20032;-67
2021/04/12 02:59:59;;;;;;;6.18;2.58;;;1.40;94.50;;;;;;5137497;27;20087;-67
2021/04/12 03:02:45;;;;;;;5.60;2.40;;;1.40;94.50;;;;;;5137832;27;20424;-67
2021/04/12 03:05:28;;;;;;;6.00;2.63;;;1.40;94.50;;;;;;5137321;27;20035;-67
2021/04/12 03:08:31;;;;;;;6.25;2.50;;;1.50;94.60;;;;;;5136085;27;20067;-67
2021/04/12 03:11:22;;;;;;;8.75;2.75;;;1.40;94.60;;;;;;5136303;27;20121;-67
2021/04/12 03:14:21;;;;;;;8.63;2.80;;;1.50;94.70;;;;;;5137486;27;20131;-67
2021/04/12 03:17:22;;;;;;;4.50;3.03;;;1.50;94.50;;;;;;5137223;27;20041;-67
2021/04/12 03:20:06;;;;;;;8.35;3.95;;;1.40;94.60;;;;;;5135887;27;20501;-67
2021/04/12 03:23:06;;;;;;;5.75;2.50;;;1.40;94.70;;;;;;5137606;27;20070;-67
2021/04/12 03:25:56;;;;;;;5.00;2.17;;;1.40;94.60;;;;;;5137070;27;20035;-67
2021/04/12 03:28:29;;;;;;;5.63;2.10;;;1.40;94.60;;;;;;5137427;27;20041;-67
2021/04/12 03:31:16;;;;;;;5.75;2.03;;;1.40;94.60;;;;;;5137568;27;20038;-67
2021/04/12 03:34:14;;;;;;;6.80;2.97;;;1.30;94.70;;;;;;5136932;27;20043;-67
2021/04/12 03:36:54;;;;;;;7.88;2.40;;;1.30;94.90;;;;;;5136574;27;20035;-67
2021/04/12 03:39:26;;;;;;;8.63;2.97;;;1.30;94.70;;;;;;5137189;27;20035;-67
2021/04/12 03:42:04;;;;;;;9.55;3.17;;;1.30;94.60;;;;;;5137464;27;20035;-67
2021/04/12 03:44:46;;;;;;;3.28;2.17;;;1.30;94.60;;;;;;5135664;27;20058;-68
2021/04/12 03:47:41;;;;;;;9.00;2.78;;;1.20;94.60;;;;;;5136819;27;20390;-67
2021/04/12 03:50:22;;;;;;;6.47;3.33;;;1.20;94.70;;;;;;5136856;27;20116;-67
2021/04/12 03:53:11;;;;;;;3.53;2.47;;;1.20;94.80;;;;;;5137089;27;20044;-67
2021/04/12 03:56:01;;;;;;;4.50;2.47;;;1.20;94.80;;;;;;5135983;27;20043;-67
2021/04/12 03:58:40;;;;;;;5.80;2.45;;;1.20;94.90;;;;;;5137104;27;20039;-67
2021/04/12 04:01:33;;;;;;;7.05;2.50;;;1.20;94.80;;;;;;5136863;27;20039;-67
2021/04/12 04:04:15;;;;;;;7.57;2.95;;;1.20;94.90;;;;;;5136556;27;20096;-67
2021/04/12 04:06:59;;;;;;;8.20;2.80;;;1.10;95.00;;;;;;5135943;27;20039;-67
2021/04/12 04:09:45;;;;;;;11.27;2.85;;;1.10;94.90;;;;;;5136560;27;20479;-67
2021/04/12 04:12:41;;;;;;;7.32;2.33;;;1.20;95.00;;;;;;5136485;27;20104;-67
2021/04/12 04:15:31;;;;;;;7.95;2.90;;;1.20;94.90;;;;;;5136189;27;20039;-67
2021/04/12 04:18:08;;;;;;;3.03;2.08;;;1.20;94.80;;;;;;5136256;27;20035;-67
2021/04/12 04:20:59;;;;;;;8.55;3.35;;;1.20;94.90;;;;;;5136118;27;20035;-67
2021/04/12 04:24:02;;;;;;;5.68;2.97;;;1.20;95.20;;;;;;5136314;27;20035;-67
2021/04/12 04:26:56;;;;;;;7.97;3.08;;;1.20;95.10;;;;;;5135861;27;20047;-67
2021/04/12 04:29:33;;;;;;;6.47;3.05;;;1.20;95.20;;;;;;5135344;27;20039;-67
2021/04/12 04:32:32;;;;;;;8.02;3.30;;;1.10;95.20;;;;;;5135968;27;20460;-67
2021/04/12 04:35:22;;;;;;;8.35;2.38;;;1.10;95.10;;;;;;5135824;27;20574;-67
2021/04/12 04:38:19;;;;;;;6.25;2.65;;;1.10;95.20;;;;;;5134611;27;20043;-67
2021/04/12 04:41:02;;;;;;;8.55;3.33;;;1.10;95.20;;;;;;5136071;27;20039;-67
2021/04/12 04:44:08;;;;;;;7.35;2.65;;;1.10;95.40;;;;;;5135942;27;20041;-67
2021/04/12 04:47:08;;;;;;;11.00;2.95;;;1.10;95.30;;;;;;5135187;27;20042;-67
2021/04/12 04:50:10;;;;;;;5.50;2.85;;;1.10;95.30;;;;;;5135596;27;20031;-67
2021/04/12 04:53:06;;;;;;;6.38;2.75;;;1.10;95.30;;;;;;5135718;27;20043;-67
2021/04/12 04:55:40;;;;;;;7.65;3.47;;;1.10;95.30;;;;;;5135141;27;20062;-67
2021/04/12 04:58:43;;;;;;;5.95;2.65;;;1.10;95.20;;;;;;5135695;27;20375;-67
2021/04/12 05:01:43;;;;;;;6.85;2.67;;;1.10;95.20;;;;;;5133932;27;20047;-67
2021/04/12 05:04:28;;;;;;;5.32;2.60;;;1.20;95.20;;;;;;5134027;27;20086;-67
2021/04/12 05:07:13;;;;;;;5.60;2.70;;;1.10;95.20;;;;;;5134407;27;20046;-67
2021/04/12 05:10:01;;;;;;;6.47;2.20;;;1.20;95.20;;;;;;5135029;27;20035;-67
2021/04/12 05:12:48;;;;;;;3.92;2.10;;;1.20;95.30;;;;;;5135197;27;20051;-67
2021/04/12 05:15:48;;;;;;;6.45;2.30;;;1.20;95.30;;;;;;5134755;27;20395;-67
2021/04/12 05:18:19;;;;;;;4.43;2.30;;;1.30;95.30;;;;;;5135096;27;20035;-66
2021/04/12 05:21:20;;;;;;;5.07;2.05;;;1.50;95.30;;;;;;5134643;27;20051;-66
2021/04/12 05:24:09;;;;;;;4.05;1.98;;;1.70;95.30;;;;;;5135283;27;20043;-67
2021/04/12 05:27:11;;;;;;;5.95;2.20;;;1.90;95.10;;;;;;5134669;27;20035;-67
2021/04/12 05:29:37;;;;;;;4.97;1.70;;;2.10;94.90;;;;;;5134799;27;20035;-67
2021/04/12 05:32:21;;;;;;;8.18;2.08;;;2.30;94.60;;;;;;5135035;27;20042;-67
2021/04/12 05:35:16;;;;;;;5.25;1.70;;;2.50;94.30;;;;;;5134520;27;20111;-67
2021/04/12 05:37:51;;;;;;;4.05;1.80;;;2.70;93.90;;;;;;5134509;27;20546;-67
2021/04/12 05:40:47;;;;;;;3.10;1.73;;;2.80;93.70;;;;;;5135114;27;20039;-70
2021/04/12 05:43:27;;;;;;;4.78;1.42;;;2.90;93.60;;;;;;5134968;27;20073;-70
2021/04/12 05:46:12;;;;;;;5.78;1.30;;;3.10;93.70;;;;;;5134115;27;20059;-70
2021/04/12 05:49:03;;;;;;;2.80;1.50;;;3.20;93.50;;;;;;5134485;27;20043;-70
2021/04/12 05:51:46;;;;;;;2.15;1.13;;;3.40;93.40;;;;;;5134886;27;20035;-70
2021/04/12 05:54:33;;;;;;;3.58;1.38;;;3.50;93.10;;;;;;5134453;27;20047;-70
2021/04/12 05:57:27;;;;;;;3.00;1.48;;;3.70;93.00;;;;;;5134657;27;20392;-70
2021/04/12 06:00:25;;;;;;;3.53;1.67;;;3.80;92.60;;;;;;5134466;27;20047;-70
2021/04/12 06:03:35;;;;;;;5.32;1.95;;;3.90;92.40;;;;;;5133589;27;20063;-70
2021/04/12 06:06:28;;;;;;;4.32;1.67;;;4.10;92.20;;;;;;5132840;27;20055;-70
2021/04/12 06:09:03;;;;;;;3.92;1.90;;;4.40;92.00;;;;;;5134469;27;20035;-70
2021/04/12 06:11:37;;;;;;;5.00;1.25;;;4.50;91.70;;;;;;5134119;27;20038;-70
2021/04/12 06:14:15;;;;;;;4.57;1.63;;;4.70;91.40;;;;;;5134353;27;20088;-70
2021/04/12 06:17:07;;;;;;;5.15;1.35;;;4.80;90.90;;;;;;5133696;27;20039;-70
2021/04/12 06:19:47;;;;;;;3.90;1.42;;;4.90;90.80;;;;;;5135616;27;20043;-70
2021/04/12 06:22:31;;;;;;;4.03;1.75;;;5.10;90.50;;;;;;5138388;27;20044;-70
2021/04/12 06:25:18;;;;;;;2.83;1.38;;;5.20;90.30;;;;;;5138196;27;20118;-70
2021/04/12 06:28:13;;;;;;;3.10;1.08;;;5.30;89.60;;;;;;5137891;27;20482;-70
2021/04/12 06:30:54;;;;;;;1.23;0.90;;;5.50;89.80;;;;;;5138442;27;20547;-70
2021/04/12 06:33:38;;;;;;;9.63;1.45;;;5.60;88.30;;;;;;5138141;27;20394;-70
2021/04/12 06:36:16;;;;;;;3.75;1.27;;;5.70;87.80;;;;;;5137867;27;20065;-70
2021/04/12 06:38:45;;;;;;;6.05;1.40;;;5.80;87.70;;;;;;5138030;27;20039;-70
2021/04/12 06:41:18;;;;;;;2.70;1.25;;;6.00;86.90;;;;;;5137853;27;20043;-70
2021/04/12 06:44:13;;;;;;;4.80;1.50;;;6.10;86.60;;;;;;5138549;27;20074;-70
2021/04/12 06:47:40;;;;;;;5.15;1.83;;;6.20;85.80;;;;;;5137829;27;20035;-70
2021/04/12 06:50:25;;;;;;;5.40;1.50;;;6.40;85.60;;;;;;5135657;27;20046;-70
2021/04/12 06:52:59;;;;;;;;;;;6.60;84.40;;;;;;5136276;27;20043;-70
2021/04/12 06:55:43;;;;;;;2.25;1.10;;;6.60;83.60;;;;;;5136672;27;20006;-70
2021/04/12 06:58:24;;;;;;;3.10;1.30;;;6.80;83.00;;;;;;5137562;27;20027;-70
2021/04/12 07:01:31;;;;;;;4.03;1.40;;;6.80;83.00;;;;;;5138228;27;20038;-70
2021/04/12 07:04:28;;;;;;;2.63;1.60;;;7.10;81.40;;;;;;5138247;27;20071;-70
2021/04/12 07:07:19;;;;;;;2.17;1.20;;;7.20;81.90;;;;;;5137551;27;20043;-70
2021/04/12 07:10:06;;;;;;;6.80;1.00;;;7.40;81.10;;;;;;5137741;27;20058;-70
2021/04/12 07:12:56;;;;;;;3.90;0.95;;;7.50;80.40;;;;;;5137311;27;20395;-70
2021/04/12 07:15:48;;;;;;;1.92;1.17;;;7.50;78.40;;;;;;5137136;27;20041;-70
2021/04/12 07:18:20;;;;;;;3.30;1.00;;;7.70;79.30;;;;;;5137561;27;20493;-70
2021/04/12 07:21:04;;;;;;;3.72;1.10;;;7.70;78.50;;;;;;5137293;27;20027;-70
2021/04/12 07:23:54;;;;;;;3.75;1.10;;;7.70;78.00;;;;;;5137452;27;20065;-70
2021/04/12 07:26:49;;;;;;;3.72;1.13;;;7.80;78.90;;;;;;5136823;27;20058;-70
2021/04/12 07:29:43;;;;;;;4.30;1.20;;;7.90;77.10;;;;;;5137089;27;20110;-70
2021/04/12 07:32:46;;;;;;;3.80;0.88;;;8.20;76.40;;;;;;5137426;27;20035;-70
2021/04/12 07:35:33;;;;;;;4.95;1.17;;;8.30;76.50;;;;;;5136698;27;20039;-70
2021/04/12 07:38:36;;;;;;;3.40;0.90;;;8.50;75.90;;;;;;5137428;27;20050;-70
2021/04/12 07:41:27;;;;;;;3.47;0.82;;;8.60;75.00;;;;;;5137472;27;20058;-70
2021/04/12 07:44:31;;;;;;;4.43;0.90;;;8.70;74.80;;;;;;5136897;27;20080;-70
2021/04/12 07:47:28;;;;;;;6.32;1.55;;;8.80;72.80;;;;;;5136700;27;20444;-70
2021/04/12 07:50:05;;;;;;;3.97;0.93;;;8.80;72.20;;;;;;5136606;27;20042;-70
2021/04/12 07:52:53;;;;;;;3.65;1.02;;;8.90;72.40;;;;;;5136508;27;20042;-70
2021/04/12 07:55:48;;;;;;;3.22;0.98;;;8.90;72.30;;;;;;5136270;27;20494;-70
2021/04/12 07:58:45;;;;;;;4.53;1.15;;;9.00;70.20;;;;;;5136682;27;20446;-70
2021/04/12 08:01:16;;;;;;;7.20;1.10;;;9.10;71.90;;;;;;5136410;27;20035;-70
2021/04/12 08:04:20;;;;;;;2.95;0.82;;;9.10;70.30;;;;;;5136578;27;20043;-70
2021/04/12 08:06:45;;;;;;;3.05;0.90;;;9.20;69.60;;;;;;5136067;27;20081;-70
2021/04/12 08:09:23;;;;;;;5.85;0.90;;;9.20;68.10;;;;;;5136208;27;20043;-70
2021/04/12 08:12:11;;;;;;;4.45;1.10;;;9.10;66.40;;;;;;5136386;27;20040;-70
2021/04/12 08:15:13;;;;;;;3.15;1.20;;;9.20;66.40;;;;;;5135886;27;20080;-70
2021/04/12 08:18:16;;;;;;;3.65;1.17;;;9.10;65.40;;;;;;5136014;27;20046;-70
2021/04/12 08:21:11;;;;;;;5.65;0.70;;;8.90;64.20;;;;;;5135038;27;20043;-70
2021/04/12 08:24:04;;;;;;;6.57;1.73;;;8.90;65.20;;;;;;5135894;27;20478;-70
2021/04/12 08:26:59;;;;;;;3.67;0.95;;;9.10;65.70;;;;;;5135635;27;20080;-70
2021/04/12 08:29:28;;;;;;;4.20;0.85;;;9.10;66.00;;;;;;5136242;27;20039;-70
2021/04/12 08:32:31;;;;;;;6.43;1.30;;;9.30;65.40;;;;;;5136351;27;20113;-70
2021/04/12 08:35:31;;;;;;;4.88;1.00;;;9.50;66.50;;;;;;5134410;27;20036;-70
2021/04/12 08:38:28;;;;;;;3.88;0.90;;;9.40;64.20;;;;;;5136372;27;20047;-70
2021/04/12 08:41:08;;;;;;;6.10;1.05;;;9.10;64.30;;;;;;5135842;27;20042;-70
2021/04/12 08:44:07;;;;;;;4.90;1.15;;;8.70;66.10;;;;;;5134792;27;20035;-70
2021/04/12 08:47:10;;;;;;;5.35;1.00;;;8.70;67.90;;;;;;5135671;27;20062;-70
2021/04/12 08:49:42;;;;;;;4.70;0.70;;;8.90;62.70;;;;;;5135923;27;20035;-70
2021/04/12 08:52:39;;;;;;;4.07;1.20;;;9.20;61.00;;;;;;5135530;27;20058;-70
2021/04/12 08:55:32;;;;;;;3.13;0.90;;;9.20;61.80;;;;;;5134516;27;20058;-70
2021/04/12 08:58:22;;;;;;;5.97;0.70;;;9.30;61.80;;;;;;5135920;27;20035;-70
2021/04/12 09:01:07;;;;;;;3.00;0.85;;;8.90;59.70;;;;;;5135404;27;20034;-70
2021/04/12 09:04:06;;;;;;;4.88;0.90;;;8.90;60.00;;;;;;5135516;27;20069;-71
2021/04/12 09:07:02;;;;;;;5.05;0.80;;;8.70;60.30;;;;;;5134801;27;20046;-70
2021/04/12 09:09:45;;;;;;;2.97;0.80;;;8.60;61.70;;;;;;5135143;27;20032;-70
2021/04/12 09:12:29;;;;;;;3.53;0.50;;;7.80;66.40;;;;;;5135293;27;20036;-70
2021/04/12 09:15:07;;;;;;;;;;;7.70;71.80;;;;;;5135475;27;20042;-70
2021/04/12 09:18:10;;;;;;;2.28;0.63;;;7.30;74.60;;;;;;5133783;27;20388;-70
2021/04/12 09:21:10;;;;;;;2.35;0.50;;;6.90;76.40;;;;;;5133689;27;20069;-70
2021/04/12 09:24:22;;;;;;;2.47;0.70;;;6.50;76.60;;;;;;5134942;27;20062;-70
2021/04/12 09:27:12;;;;;;;2.03;0.57;;;6.30;79.60;;;;;;5134968;27;20035;-70
2021/04/12 09:30:28;;;;;;;2.63;0.60;;;6.20;82.20;;;;;;5135054;27;20038;-70
2021/04/12 09:33:02;;;;;;;3.30;0.63;;;6.00;80.70;;;;;;5132339;27;20100;-69
2021/04/12 09:35:54;;;;;;;1.70;0.40;;;5.90;79.50;;;;;;5134048;27;20140;-69
2021/04/12 09:38:48;;;;;;;2.20;0.52;;;5.80;78.80;;;;;;5134679;27;20035;-70
2021/04/12 09:41:59;;;;;;;2.85;0.60;;;5.70;79.70;;;;;;5134766;27;20031;-70
2021/04/12 09:45:09;;;;;;;3.28;0.70;;;5.80;81.30;;;;;;5134777;27;20039;-70
2021/04/12 09:47:51;;;;;;;2.40;0.60;;;5.90;80.90;;;;;;5134608;27;20045;-70
2021/04/12 09:50:42;;;;;;;1.38;0.60;;;6.10;81.50;;;;;;5134591;27;20046;-70
2021/04/12 09:54:01;;;;;;;1.27;0.70;;;6.20;82.10;;;;;;5134087;27;20043;-70
2021/04/12 09:56:49;;;;;;;4.10;0.77;;;6.20;80.50;;;;;;5132908;27;20047;-70
2021/04/12 09:59:52;;;;;;;5.47;1.15;;;6.20;81.70;;;;;;5133103;27;20380;-70
2021/04/12 10:02:39;;;;;;;3.95;0.90;;;6.20;83.50;;;;;;5134414;27;20039;-70
2021/04/12 10:05:15;;;;;;;2.80;0.68;;;6.10;85.00;;;;;;5134289;27;20039;-70
2021/04/12 10:08:07;;;;;;;3.00;0.90;;;6.30;85.90;;;;;;5134084;27;20031;-70
2021/04/12 10:11:04;;;;;;;3.17;0.80;;;6.70;86.80;;;;;;5134377;27;20042;-70
2021/04/12 10:13:57;;;;;;;3.33;0.80;;;7.10;84.10;;;;;;5134273;27;20092;-70
2021/04/12 10:16:31;;;;;;;10.43;1.23;;;7.30;82.50;;;;;;5133707;27;20486;-70
2021/04/12 10:19:04;;;;;;;5.68;0.95;;;7.50;81.60;;;;;;5134887;27;20463;-70
2021/04/12 10:21:55;;;;;;;4.43;1.05;;;7.70;82.30;;;;;;5114857;27;20058;-70
2021/04/12 10:24:50;;;;;;;5.20;0.85;;;7.80;78.80;;;;;;5113670;28;20487;-70
2021/04/12 10:27:27;;;;;;;5.05;0.93;;;7.90;78.40;;;;;;5113636;28;20080;-70
2021/04/12 10:30:27;;;;;;;5.13;0.60;;;8.10;78.30;;;;;;5113786;28;20433;-70
2021/04/12 10:33:06;;;;;;;3.78;1.10;;;8.30;77.00;;;;;;5112526;28;20046;-70
2021/04/12 10:35:50;;;;;;;3.97;1.02;;;8.40;77.10;;;;;;5113474;28;20500;-70
2021/04/12 10:38:21;;;;;;;;;;;8.40;74.50;;;;;;5114035;28;20063;-70
2021/04/12 10:40:52;;;;;;;2.83;0.73;;;8.00;66.80;;;;;;5113247;28;19923;-70
2021/04/12 10:43:25;;;;;;;2.33;0.60;;;7.90;71.70;;;;;;5113584;28;20062;-70
2021/04/12 10:45:58;;;;;;;3.63;0.47;;;7.70;71.90;;;;;;5113089;28;20035;-70
2021/04/12 10:48:34;;;;;;;1.45;0.28;;;7.10;74.50;;;;;;5113406;28;20035;-70
2021/04/12 10:51:22;;;;;;;2.35;0.57;;;6.80;79.20;;;;;;5113512;28;20114;-70
2021/04/12 10:53:53;;;;;;;4.50;1.05;;;6.10;81.60;;;;;;5113188;28;20474;-70
2021/04/12 10:56:27;;;;;;;1.90;0.82;;;5.90;84.60;;;;;;5112981;28;20386;-70
2021/04/12 10:59:04;;;;;;;2.65;0.77;;;5.70;88.10;;;;;;5113841;28;20459;-70
2021/04/12 11:01:50;;;;;;;4.03;0.90;;;5.70;88.80;;;;;;5113202;28;20032;-70
2021/04/12 11:04:53;;;;;;;3.00;0.50;;;5.70;89.20;;;;;;5112605;28;20051;-69
2021/04/12 11:08:02;;;;;;;2.22;0.60;;;5.70;88.30;;;;;;5116787;28;20043;-69
2021/04/12 11:10:46;;;;;;;1.50;0.52;;;5.90;88.00;;;;;;5117358;27;20032;-70
2021/04/12 11:13:32;;;;;;;1.13;0.50;;;6.20;86.10;;;;;;5117186;28;20472;-67
2021/04/12 11:16:12;;;;;;;2.58;0.55;;;6.50;87.60;;;;;;5115561;27;20047;-67
2021/04/12 11:19:02;;;;;;;2.28;1.00;;;6.80;88.20;;;;;;5115927;28;20115;-67
2021/04/12 11:21:55;;;;;;;3.28;0.77;;;7.10;86.70;;;;;;5117205;28;20048;-66
2021/04/12 11:24:39;;;;;;;2.50;0.70;;;7.30;83.10;;;;;;5116551;28;20065;-67
2021/04/12 11:27:42;;;;;;;3.72;0.80;;;7.40;83.30;;;;;;5116645;28;20039;-66
2021/04/12 11:30:27;;;;;;;3.08;0.60;;;7.60;82.90;;;;;;5116718;28;20471;-67
2021/04/12 11:33:13;;;;;;;1.13;0.68;;;7.90;83.00;;;;;;5116469;28;20039;-66
2021/04/12 11:36:06;;;;;;;1.75;0.40;;;8.20;83.70;;;;;;5116088;28;20035;-67
2021/04/12 11:38:35;;;;;;;1.73;0.38;;;7.50;77.90;;;;;;5116714;28;20519;-67
2021/04/12 11:41:24;;;;;;;1.08;0.30;;;6.90;78.70;;;;;;5116296;28;20093;-67
2021/04/12 11:43:54;;;;;;;3.25;0.55;;;6.60;80.10;;;;;;5116313;28;20054;-67
2021/04/12 11:46:58;;;;;;;5.10;0.77;;;6.30;82.00;;;;;;5114697;28;20035;-67
2021/04/12 11:50:01;;;;;;;2.03;0.47;;;6.20;82.50;;;;;;5116264;28;20492;-67
2021/04/12 11:52:37;;;;;;;1.60;0.35;;;6.00;83.40;;;;;;5115790;28;20035;-67
2021/04/12 11:55:21;;;;;;;0.95;0.40;;;5.80;83.60;;;;;;5115394;28;20441;-67
2021/04/12 11:58:11;;;;;;;0.98;0.20;;;5.50;85.10;;;;;;5115942;28;20139;-67
2021/04/12 12:00:49;;;;;;;2.90;0.30;;;5.30;85.10;;;;;;5115816;28;20032;-67
2021/04/12 12:03:38;;;;;;;1.67;0.70;;;5.30;88.90;;;;;;5114850;28;20118;-67
2021/04/12 12:06:30;;;;;;;2.10;0.45;;;5.30;89.20;;;;;;5115614;28;20031;-68
2021/04/12 12:09:07;;;;;;;6.18;0.60;;;5.40;89.40;;;;;;5115980;28;20039;-67
2021/04/12 12:12:05;;;;;;;1.13;0.45;;;5.50;90.60;;;;;;5115730;27;20044;-67
2021/04/12 12:14:37;;;;;;;0.47;0.30;;;5.50;90.50;;;;;;5080580;27;20051;-68
2021/04/12 12:17:13;;;;;;;1.35;0.30;;;5.60;90.90;;;;;;5115361;27;20059;-67
2021/04/12 12:19:44;;;;;;;1.75;0.60;;;5.60;90.10;;;;;;5115491;28;20039;-67
2021/04/12 12:22:19;;;;;;;1.50;0.47;;;5.80;90.30;;;;;;5114686;28;20039;-67
2021/04/12 12:24:53;;;;;;;1.02;0.50;;;6.10;90.90;;;;;;5115182;28;20111;-67
2021/04/12 12:27:25;;;;;;;2.67;0.30;;;6.20;90.00;;;;;;5115869;28;20058;-67
2021/04/12 12:29:54;;;;;;;2.67;0.70;;;6.40;90.30;;;;;;5115383;28;20542;-67
2021/04/12 12:32:50;;;;;;;3.70;0.68;;;6.40;89.90;;;;;;5115486;28;20044;-67
2021/04/12 12:35:42;;;;;;;2.17;0.60;;;6.30;89.90;;;;;;5115071;28;20046;-67
2021/04/12 12:38:17;;;;;;;2.90;0.40;;;6.40;90.20;;;;;;5115586;28;20032;-66
2021/04/12 12:40:47;;;;;;;1.30;0.40;;;6.40;90.30;;;;;;5115049;27;20047;-70
2021/04/12 12:43:31;;;;;;;3.47;0.70;;;6.50;89.90;;;;;;5115401;28;20036;-70
2021/04/12 12:46:11;;;;;;;2.25;0.70;;;6.80;90.90;;;;;;5114640;28;20035;-70
2021/04/12 12:48:47;;;;;;;2.35;0.70;;;6.90;90.20;;;;;;5114977;28;20104;-71
2021/04/12 12:51:24;;;;;;;2.55;0.60;;;6.90;90.60;;;;;;5115202;28;20042;-70
2021/04/12 12:53:51;;;;;;;1.55;0.60;;;6.80;90.20;;;;;;5115263;28;20494;-71
2021/04/12 12:56:22;;;;;;;1.08;0.50;;;7.10;89.20;;;;;;5113868;28;20074;-71
2021/04/12 12:59:03;;;;;;;2.67;0.60;;;7.20;87.00;;;;;;5115500;28;20155;-71
2021/04/12 13:01:40;;;;;;;1.55;0.50;;;7.00;85.20;;;;;;5114709;28;20117;-71
2021/04/12 13:04:17;;;;;;;2.30;0.68;;;7.10;85.60;;;;;;5114889;28;20045;-71
2021/04/12 13:06:45;;;;;;;2.03;0.73;;;6.90;85.50;;;;;;5114424;28;20040;-71
2021/04/12 13:09:20;;;;;;;3.50;0.85;;;6.80;84.80;;;;;;5113396;28;20062;-71
2021/04/12 13:11:52;;;;;;;1.67;0.82;;;6.70;85.80;;;;;;5114641;28;20039;-71
2021/04/12 13:14:32;;;;;;;2.33;0.50;;;6.60;87.30;;;;;;5114770;28;20046;-71
2021/04/12 13:17:01;;;;;;;1.23;0.55;;;6.50;88.20;;;;;;5114377;28;20130;-71
2021/04/12 13:19:46;;;;;;;2.10;0.65;;;6.60;88.60;;;;;;5114704;28;20047;-71
2021/04/12 13:22:17;;;;;;;3.83;1.20;;;6.50;89.40;;;;;;5114655;28;20063;-71
2021/04/12 13:24:43;;;;;;;4.18;2.00;;;6.50;90.30;;;;;;5114232;28;20118;-71
2021/04/12 13:27:16;;;;;;;2.67;0.70;;;6.50;91.00;;;;;;5114506;28;20066;-71
2021/04/12 13:30:03;;;;;;;3.60;0.77;;;6.40;90.60;;;;;;5114394;28;20111;-71
2021/04/12 13:32:34;;;;;;;2.97;1.05;;;6.30;90.50;;;;;;5114254;28;20032;-71
2021/04/12 13:35:14;;;;;;;2.80;1.00;;;6.10;90.40;;;;;;5114029;28;20092;-69
2021/04/12 13:37:49;;;;;;;3.78;0.95;;;6.00;90.30;;;;;;5113375;28;20063;-70
2021/04/12 13:40:51;;;;;;;2.60;0.88;;;6.20;91.30;;;;;;5114374;28;20077;-71
2021/04/12 13:43:19;;;;;;;4.30;0.82;;;6.70;92.60;;;;;;5113924;28;20442;-71
2021/04/12 13:45:49;;;;;;;1.23;0.60;;;7.20;91.40;;;;;;5113554;28;20044;-72
2021/04/12 13:48:23;;;;;;;4.38;1.05;;;7.30;89.80;;;;;;5113868;28;20111;-71
2021/04/12 13:50:57;;;;;;;3.15;0.70;;;7.30;87.10;;;;;;5114245;28;20556;-72
2021/04/12 13:53:48;;;;;;;1.15;0.60;;;7.50;88.40;;;;;;5114168;28;20054;-71
2021/04/12 13:56:39;;;;;;;2.58;0.60;;;7.60;85.20;;;;;;5106236;28;20377;-72
2021/04/12 13:59:10;;;;;;;2.03;0.60;;;7.60;85.40;;;;;;5111979;28;20048;-71
2021/04/12 14:01:49;;;;;;;2.55;0.63;;;7.80;83.60;;;;;;5113697;28;20037;-71
2021/04/12 14:04:21;;;;;;;4.60;0.90;;;7.80;84.00;;;;;;5113906;28;20039;-72
2021/04/12 14:07:08;;;;;;;1.88;0.52;;;7.60;82.70;;;;;;5113445;28;20108;-72
2021/04/12 14:09:43;;;;;;;1.60;0.50;;;7.60;81.90;;;;;;5112930;28;20051;-72
2021/04/12 14:12:31;;;;;;;2.78;0.73;;;7.60;77.20;;;;;;5114018;28;20031;-72
2021/04/12 14:15:11;;;;;;;2.60;0.60;;;7.80;78.50;;;;;;5113471;28;20074;-72
2021/04/12 14:17:49;;;;;;;3.15;0.68;;;8.00;78.10;;;;;;5113600;27;20468;-71
2021/04/12 14:20:44;;;;;;;2.08;0.50;;;8.00;76.90;;;;;;5113612;28;20035;-72
2021/04/12 14:23:18;;;;;;;1.05;0.43;;;8.00;75.30;;;;;;5113944;28;20494;-72
2021/04/12 14:25:45;;;;;;;4.40;0.70;;;8.10;75.30;;;;;;5112013;28;20498;-71
2021/04/12 14:28:18;;;;;;;6.55;1.25;;;8.00;74.10;;;;;;5113487;28;20122;-72
2021/04/12 14:30:47;;;;;;;5.72;0.70;;;8.30;77.30;;;;;;5113556;28;20036;-71
2021/04/12 14:33:25;;;;;;;4.13;0.82;;;8.30;75.90;;;;;;5113682;28;20047;-71
2021/04/12 14:36:04;;;;;;;3.00;0.75;;;8.40;78.50;;;;;;5113350;28;20089;-71
2021/04/12 14:38:33;;;;;;;4.90;0.60;;;8.50;76.80;;;;;;5112791;28;20035;-72